This is the latest recevied weather packets stored in our database for station/object W5HKR. If no packets are shown the sender has not sent any weather packets the latest 10 day(s).
| Time | Temp. | Humidity | Pressure | Rain* | Wind** | Luminosity | Snow |
|---|---|---|---|---|---|---|---|
| 1778160505 | 18.33° C | 91% | 990.6 hPa | 0 mm | - | - | - |
| 1778160202 | 18.33° C | 91% | 990.6 hPa | 0 mm | - | - | - |
| 1778160113 | 15.56° C | 88% | 988.8 hPa | 0 mm | - | - | - |
| 1778159903 | 18.33° C | 91% | 990.6 hPa | 0 mm | - | - | - |
| 1778159603 | 18.33° C | 91% | 990.6 hPa | 0 mm | - | - | - |
| 1778159304 | 15.56° C | 88% | 988.1 hPa | 0 mm | - | - | - |
| 1778159033 | 18.33° C | 91% | 990.6 hPa | 0 mm | - | - | - |
| 1778159002 | 16.11° C | 87% | 988.8 hPa | 0 mm | - | - | - |
| 1778158703 | 16.11° C | 86% | 988.7 hPa | 0 mm | - | - | - |
| 1778158404 | 16.11° C | 86% | 988.4 hPa | 0 mm | - | - | - |
| 1778158102 | 18.33° C | 91% | 990.6 hPa | 0 mm | - | - | - |
| 1778157953 | 16.11° C | 84% | 988.2 hPa | 0 mm | - | - | - |
| 1778157802 | 18.33° C | 91% | 990.6 hPa | 0 mm | - | - | - |
| 1778157503 | 18.33° C | 91% | 990.6 hPa | 0 mm | - | - | - |
| 1778157202 | 18.33° C | 91% | 990.6 hPa | 0 mm | - | - | - |
| 1778156874 | 16.67° C | 83% | 988.2 hPa | 0 mm | - | - | - |
| 1778156602 | 18.33° C | 91% | 990.6 hPa | 0 mm | - | - | - |
| 1778156304 | 16.67° C | 82% | 988.1 hPa | 0 mm | - | - | - |
| 1778156003 | 16.67° C | 82% | 988.1 hPa | 0 mm | - | - | - |
| 1778155793 | 16.67° C | 82% | 987.6 hPa | 0 mm | - | - | - |
| 1778155705 | 18.33° C | 91% | 990.6 hPa | 0 mm | - | - | - |
| 1778155402 | 16.67° C | 81% | 987.5 hPa | 0 mm | - | - | - |
| 1778155105 | 16.67° C | 81% | 987.8 hPa | 0 mm | - | - | - |
| 1778154803 | 16.67° C | 81% | 987.3 hPa | 0 mm | - | - | - |
| 1778154713 | 16.67° C | 81% | 987.5 hPa | 0 mm | - | - | - |
* Rain latest hour (hover to see other rain measurements)
** Current wind speed in m/s (hover to see current wind gust speed)